Pall Mall, Tennessee
Current Conditions -  °F | °C
As of 2:56 PM on Saturday 25 Oct 2014 (Local Time) from KEKQ Reporting Station
Scattered Clouds Scattered Clouds  
Wind Chill: 71°   Ceiling: Unl
Heat Index: 71°   Visibility: 10mi
Dew Point: 56°   Wind: 8mph
Humidity: 59%   Direction: 210°SSW
Pressure: 30.01"   Gusts: NA
Location:  36.55°N, 84.97°W
Report Text: KEKQ 251956Z AUTO 21007KT 10SM SCT039 22/13 A3001 RMK AO2 T02160133 SLP168
Loading
Personal Weather Stations






























Interactive Weather Map
Tropical Storm Tracking
New forecast layout! Learn more

10-Day Weather Forecast

Advertisements
Track Severe Weather on mobile